Time;durP1;ratioP1;P1;durP2;ratioP2;P2;SDS_P1;SDS_P2;PMS_P1;PMS_P2;Temp;Humidity;BMP_temperature;BMP_pressure;BME280_temperature;BME280_humidity;BME280_pressure;Samples;Min_cycle;Max_cycle;Signal;HPM_P1;HPM_P2
2021/01/03 00:00:25;;;;;;;57.55;23.08;;;;;;;-0.47;76.17;94787.06;4752406;30;20141;-42
2021/01/03 00:02:52;;;;;;;67.53;25.45;;;;;;;-0.64;76.52;94776.19;4752435;30;20149;-41
2021/01/03 00:05:26;;;;;;;57.45;22.48;;;;;;;-0.62;76.70;94780.09;4745886;30;20052;-40
2021/01/03 00:07:53;;;;;;;56.53;23.42;;;;;;;-0.72;76.83;94782.94;4749421;30;20514;-44
2021/01/03 00:10:19;;;;;;;57.70;22.95;;;;;;;-0.99;78.27;94775.63;4742210;30;20060;-41
2021/01/03 00:12:46;;;;;;;58.38;23.02;;;;;;;-0.83;77.70;94792.91;4741451;30;20056;-41
2021/01/03 00:15:16;;;;;;;56.97;22.27;;;;;;;-0.84;77.15;94762.13;4751753;30;20084;-41
2021/01/03 00:17:43;;;;;;;59.95;23.65;;;;;;;-0.77;76.71;94775.84;4749806;30;20067;-40
2021/01/03 00:20:14;;;;;;;61.22;24.35;;;;;;;-1.03;77.68;94778.06;4738562;30;20052;-41
2021/01/03 00:22:40;;;;;;;57.25;24.10;;;;;;;-1.38;79.10;94767.94;4750725;30;20648;-40
2021/01/03 00:25:09;;;;;;;54.70;23.48;;;;;;;-1.35;80.08;94773.44;4741313;30;20055;-45
2021/01/03 00:27:37;;;;;;;65.03;24.90;;;;;;;-1.63;81.14;94787.59;4736112;30;20079;-41
2021/01/03 00:30:07;;;;;;;70.90;25.25;;;;;;;-1.49;81.47;94783.97;4767438;30;20230;-40
2021/01/03 00:32:34;;;;;;;70.65;25.50;;;;;;;-1.39;81.19;94775.09;4753621;30;20083;-44
2021/01/03 00:35:00;;;;;;;71.80;26.30;;;;;;;-1.04;79.95;94776.50;4753174;30;20064;-40
2021/01/03 00:37:27;;;;;;;70.10;25.27;;;;;;;-0.96;79.27;94783.03;4753322;30;20060;-41
2021/01/03 00:39:53;;;;;;;70.65;25.77;;;;;;;-0.91;78.98;94782.16;4766998;30;20368;-45
2021/01/03 00:42:20;;;;;;;71.65;26.83;;;;;;;-1.24;80.37;94784.72;4752286;30;20121;-42
2021/01/03 00:44:46;;;;;;;76.55;26.05;;;;;;;-1.68;82.54;94772.53;4753603;30;20064;-40
2021/01/03 00:47:13;;;;;;;89.32;29.55;;;;;;;-1.79;83.59;94773.69;4752938;30;20068;-46
2021/01/03 00:49:39;;;;;;;83.43;27.75;;;;;;;-1.86;84.36;94773.25;4752708;30;20126;-45
2021/01/03 00:52:06;;;;;;;88.38;31.98;;;;;;;-1.46;83.09;94777.31;4753018;30;20087;-45
2021/01/03 00:54:32;;;;;;;74.82;26.55;;;;;;;-1.15;81.89;94784.88;4752780;30;20060;-41
2021/01/03 00:56:59;;;;;;;75.43;26.70;;;;;;;-1.07;80.90;94773.59;4753856;30;20101;-40
2021/01/03 00:59:26;;;;;;;69.75;25.25;;;;;;;-0.83;80.17;94782.28;4753902;30;20731;-40
2021/01/03 01:01:52;;;;;;;79.13;26.63;;;;;;;-0.74;79.99;94777.91;4753462;30;20486;-44
2021/01/03 01:04:18;;;;;;;68.78;24.95;;;;;;;-0.65;78.94;94787.88;4752583;30;20079;-42
2021/01/03 01:06:45;;;;;;;80.93;25.80;;;;;;;-0.73;79.75;94784.81;4752532;30;20060;-42
2021/01/03 01:09:11;;;;;;;73.85;27.55;;;;;;;-0.95;80.30;94772.09;4752475;30;20055;-40
2021/01/03 01:11:41;;;;;;;84.05;28.52;;;;;;;-0.77;80.56;94797.09;4752610;30;20063;-41
2021/01/03 01:14:09;;;;;;;79.10;25.33;;;;;;;-0.62;79.32;94795.25;4752665;30;20064;-43
2021/01/03 01:16:36;;;;;;;81.93;24.98;;;;;;;-0.69;79.66;94797.50;4752439;30;20093;-41
2021/01/03 01:19:04;;;;;;;70.40;24.98;;;;;;;-0.68;79.72;94797.22;4749857;30;20063;-42
2021/01/03 01:21:31;;;;;;;84.93;27.23;;;;;;;-0.60;79.35;94803.75;4746197;30;20438;-43
2021/01/03 01:23:58;;;;;;;69.43;24.98;;;;;;;-0.92;80.82;94791.97;4752276;30;20146;-40
2021/01/03 01:26:24;;;;;;;72.45;26.05;;;;;;;-1.02;80.87;94800.88;4751231;30;20056;-40
2021/01/03 01:28:51;;;;;;;85.57;28.40;;;;;;;-1.03;81.56;94795.88;4752223;30;20070;-42
2021/01/03 01:31:17;;;;;;;78.10;25.00;;;;;;;-0.98;81.18;94798.44;4752140;30;20415;-40
2021/01/03 01:33:44;;;;;;;82.38;26.67;;;;;;;-0.80;80.54;94799.53;4751891;30;20192;-40
2021/01/03 01:36:10;;;;;;;71.43;25.02;;;;;;;-0.81;81.04;94800.63;4752320;30;20527;-40
2021/01/03 01:38:37;;;;;;;82.38;24.45;;;;;;;-0.83;80.44;94802.75;4751980;30;20139;-39
2021/01/03 01:41:04;;;;;;;76.72;29.38;;;;;;;-1.00;81.67;94803.25;4765809;30;20064;-41
2021/01/03 01:43:31;;;;;;;80.20;27.95;;;;;;;-0.79;80.96;94807.19;4751530;30;20124;-41
2021/01/03 01:45:59;;;;;;;72.60;25.33;;;;;;;-0.58;80.06;94806.91;4765433;30;20064;-40
2021/01/03 01:48:30;;;;;;;83.25;29.33;;;;;;;-0.57;79.87;94814.59;4751457;30;20056;-43
2021/01/03 01:51:05;;;;;;;83.22;28.85;;;;;;;-0.48;80.05;94820.81;4752762;30;20076;-39
2021/01/03 01:53:55;;;;;;;74.75;24.60;;;;;;;-0.34;80.01;94820.88;4753817;30;20091;-39
2021/01/03 01:56:48;;;;;;;67.95;25.98;;;;;;;-0.14;78.76;94822.41;4752449;30;20177;-40
2021/01/03 01:59:39;;;;;;;69.80;24.08;;;;;;;-0.05;78.77;94806.59;4751194;30;20052;-49
2021/01/03 02:02:21;;;;;;;57.65;23.40;;;;;;;-0.06;78.55;94797.81;4751599;30;20128;-46
2021/01/03 02:04:57;;;;;;;68.55;25.02;;;;;;;-0.13;78.37;94792.09;4751274;30;20064;-45
2021/01/03 02:07:29;;;;;;;62.80;24.00;;;;;;;-0.32;78.81;94796.69;4751055;30;20083;-44
2021/01/03 02:10:20;;;;;;;58.47;21.95;;;;;;;-0.17;78.75;94799.06;4752609;30;20056;-41
2021/01/03 02:13:00;;;;;;;64.85;25.27;;;;;;;-0.26;79.15;94806.94;4753500;30;20082;-41
2021/01/03 02:15:30;;;;;;;67.28;23.73;;;;;;;-0.22;79.22;94793.84;4752528;30;20059;-41
2021/01/03 02:17:59;;;;;;;53.45;22.17;;;;;;;-0.48;79.68;94793.47;4752327;30;20068;-42
2021/01/03 02:20:32;;;;;;;68.22;24.48;;;;;;;-0.42;79.81;94800.28;4753795;30;20086;-42
2021/01/03 02:23:05;;;;;;;54.20;21.40;;;;;;;-0.24;79.84;94790.69;4753355;30;20095;-44
2021/01/03 02:25:32;;;;;;;55.35;21.08;;;;;;;0.05;78.52;94790.44;4752787;30;20056;-46
2021/01/03 02:28:11;;;;;;;58.72;21.60;;;;;;;0.11;78.13;94794.59;4753327;30;20060;-42
2021/01/03 02:30:40;;;;;;;57.75;22.45;;;;;;;-0.15;78.74;94788.16;4753788;30;20059;-44
2021/01/03 02:33:30;;;;;;;61.95;24.33;;;;;;;-0.12;79.37;94782.25;4754531;30;20052;-43
2021/01/03 02:36:02;;;;;;;61.90;23.17;;;;;;;0.03;78.58;94773.19;4754678;30;20067;-44
2021/01/03 02:38:31;;;;;;;50.80;20.98;;;;;;;-0.05;78.85;94777.34;4754298;30;20064;-43
2021/01/03 02:40:57;;;;;;;58.28;24.02;;;;;;;-0.08;79.52;94776.03;4754087;30;20090;-43
2021/01/03 02:43:23;;;;;;;58.15;21.05;;;;;;;0.01;78.86;94778.81;4754110;30;20139;-40
2021/01/03 02:45:50;;;;;;;58.75;22.05;;;;;;;0.01;78.07;94770.06;4754238;30;20067;-42
2021/01/03 02:48:20;;;;;;;55.53;21.40;;;;;;;-0.26;79.08;94764.41;4754025;30;20129;-41
2021/01/03 02:50:47;;;;;;;62.83;22.88;;;;;;;-0.03;79.03;94777.84;4753338;30;20087;-40
2021/01/03 02:53:14;;;;;;;56.60;21.30;;;;;;;-0.20;79.18;94777.59;4754182;30;20056;-43
2021/01/03 02:55:40;;;;;;;55.38;21.33;;;;;;;-0.01;78.87;94775.66;4753662;30;20168;-42
2021/01/03 02:58:07;;;;;;;56.95;21.95;;;;;;;0.12;77.76;94763.47;4753071;30;20052;-44
2021/01/03 03:00:36;;;;;;;57.97;20.80;;;;;;;0.33;77.33;94772.66;4753396;30;20534;-40
2021/01/03 03:03:07;;;;;;;50.05;19.88;;;;;;;0.17;77.92;94761.50;4754119;30;20088;-42
2021/01/03 03:05:34;;;;;;;58.95;20.38;;;;;;;0.30;76.80;94769.78;4754312;30;20146;-40
2021/01/03 03:08:00;;;;;;;65.35;23.52;;;;;;;0.07;78.13;94768.91;4753369;30;20064;-44
2021/01/03 03:10:27;;;;;;;64.63;23.38;;;;;;;0.05;78.58;94771.81;4753281;30;20076;-46
2021/01/03 03:12:56;;;;;;;60.72;22.27;;;;;;;0.08;78.66;94771.25;4753257;30;20467;-46
2021/01/03 03:15:24;;;;;;;54.65;20.77;;;;;;;0.15;78.15;94778.84;4753232;30;20144;-44
2021/01/03 03:17:50;;;;;;;57.70;20.20;;;;;;;0.11;78.30;94772.53;4741169;30;20148;-46
2021/01/03 03:20:19;;;;;;;54.00;20.13;;;;;;;-0.07;78.34;94782.16;4738408;30;20056;-43
2021/01/03 03:22:46;;;;;;;57.97;21.83;;;;;;;-0.04;78.83;94774.38;4766478;30;20575;-42
2021/01/03 03:25:14;;;;;;;64.75;22.90;;;;;;;-0.11;78.83;94763.34;4753409;30;20064;-41
2021/01/03 03:27:41;;;;;;;57.08;22.05;;;;;;;0.02;78.23;94777.72;4753972;30;20059;-42
2021/01/03 03:30:11;;;;;;;67.53;24.70;;;;;;;-0.05;79.05;94783.44;4756915;30;20101;-40
2021/01/03 03:32:37;;;;;;;66.90;24.48;;;;;;;-0.08;79.21;94780.56;4755483;30;20103;-45
2021/01/03 03:35:05;;;;;;;56.00;22.58;;;;;;;-0.04;79.37;94792.19;4754103;30;20155;-43
2021/01/03 03:37:31;;;;;;;53.03;21.38;;;;;;;-0.07;79.43;94787.47;4754090;30;20146;-44
2021/01/03 03:39:58;;;;;;;57.22;22.90;;;;;;;-0.43;79.84;94764.13;4754738;30;20136;-44
2021/01/03 03:42:24;;;;;;;58.22;22.13;;;;;;;-0.09;79.90;94784.31;4754357;30;20109;-43
2021/01/03 03:44:51;;;;;;;53.40;21.38;;;;;;;0.10;79.09;94782.38;4754250;30;20135;-43
2021/01/03 03:47:17;;;;;;;66.45;24.15;;;;;;;-0.22;79.97;94772.56;4754467;30;20155;-43
2021/01/03 03:49:44;;;;;;;63.35;22.88;;;;;;;-0.08;79.35;94764.63;4754374;30;20109;-43
2021/01/03 03:52:10;;;;;;;53.28;21.48;;;;;;;0.01;79.39;94789.47;4753869;30;20103;-43
2021/01/03 03:54:36;;;;;;;59.55;21.63;;;;;;;0.08;78.74;94783.75;4754354;30;20060;-43
2021/01/03 03:57:05;;;;;;;57.75;21.75;;;;;;;0.18;78.55;94781.69;4751750;30;20113;-41
2021/01/03 03:59:31;;;;;;;55.33;20.33;;;;;;;-0.07;78.58;94758.22;4754214;30;20075;-40
2021/01/03 04:01:58;;;;;;;56.42;20.30;;;;;;;-0.01;78.51;94770.34;4754244;30;20114;-41
2021/01/03 04:04:25;;;;;;;48.60;19.75;;;;;;;0.11;78.23;94767.22;4769232;24;20514;-42
2021/01/03 04:06:52;;;;;;;58.33;22.23;;;;;;;-0.10;78.50;94756.13;4770952;29;20468;-42
2021/01/03 04:09:19;;;;;;;51.65;19.67;;;;;;;-0.12;78.50;94761.75;4770568;29;20075;-43
2021/01/03 04:11:49;;;;;;;48.53;19.38;;;;;;;-0.17;78.67;94769.81;4771067;30;20055;-49
2021/01/03 04:14:18;;;;;;;52.85;21.13;;;;;;;-0.21;79.17;94757.41;4770925;29;20183;-45
2021/01/03 04:16:46;;;;;;;47.22;19.40;;;;;;;-0.08;78.65;94756.66;4775101;29;20065;-42
2021/01/03 04:19:14;;;;;;;58.75;22.00;;;;;;;-0.09;78.92;94757.75;4787938;29;20429;-42
2021/01/03 04:21:41;;;;;;;52.58;19.15;;;;;;;0.04;78.71;94754.31;4788798;29;20522;-43
2021/01/03 04:24:09;;;;;;;56.38;20.77;;;;;;;0.07;78.13;94751.06;4788660;29;20055;-44
2021/01/03 04:26:52;;;;;;;49.17;19.40;;;;;;;0.04;78.32;94745.53;4788913;29;20058;-43
2021/01/03 04:29:19;;;;;;;55.30;19.80;;;;;;;-0.08;78.89;94740.69;4771819;29;20475;-42
2021/01/03 04:31:45;;;;;;;57.25;19.98;;;;;;;-0.19;78.58;94750.72;4788609;29;20063;-43
2021/01/03 04:34:13;;;;;;;53.42;18.88;;;;;;;-0.08;78.67;94754.00;4788427;29;20062;-43
2021/01/03 04:36:40;;;;;;;57.58;20.65;;;;;;;-0.21;78.99;94757.41;4788675;29;20067;-44
2021/01/03 04:39:06;;;;;;;58.05;21.73;;;;;;;-0.03;78.83;94754.69;4772448;29;20127;-42
2021/01/03 04:41:37;;;;;;;58.08;20.20;;;;;;;0.03;78.50;94762.56;4770288;30;20056;-43
2021/01/03 04:44:10;;;;;;;47.88;20.27;;;;;;;-0.02;78.41;94752.81;4770450;29;20064;-45
2021/01/03 04:46:40;;;;;;;56.85;19.42;;;;;;;0.08;77.79;94757.16;4770663;29;20055;-43
2021/01/03 04:49:16;;;;;;;48.50;19.48;;;;;;;-0.02;78.39;94772.22;4768424;30;20055;-45
2021/01/03 04:52:13;;;;;;;51.60;20.70;;;;;;;0.11;77.98;94762.69;4770487;29;20480;-44
2021/01/03 04:54:50;;;;;;;48.60;19.05;;;;;;;0.07;77.54;94761.69;4770254;30;20130;-43
2021/01/03 04:57:30;;;;;;;54.55;22.38;;;;;;;0.07;78.07;94759.03;4769940;29;20079;-41
2021/01/03 04:59:58;;;;;;;51.00;20.02;;;;;;;0.20;77.40;94765.47;4770531;29;20083;-41
2021/01/03 05:02:40;;;;;;;55.78;21.42;;;;;;;0.02;77.83;94761.78;4754143;30;20059;-45
2021/01/03 05:05:45;;;;;;;57.05;20.02;;;;;;;0.15;76.77;94766.31;4768796;30;20083;-45
2021/01/03 05:08:36;;;;;;;46.22;20.80;;;;;;;-0.04;77.71;94770.94;4749380;30;20252;-45
2021/01/03 05:11:11;;;;;;;43.15;17.70;;;;;;;0.02;76.84;94783.06;4750038;30;20139;-42
2021/01/03 05:14:06;;;;;;;52.00;19.05;;;;;;;0.10;76.73;94773.59;4764373;30;20065;-42
2021/01/03 05:16:33;;;;;;;49.53;18.40;;;;;;;-0.05;76.98;94738.22;4769866;30;20047;-44
2021/01/03 05:18:59;;;;;;;46.05;20.20;;;;;;;-0.10;77.65;94764.94;4769220;29;20067;-44
2021/01/03 05:21:41;;;;;;;50.78;20.65;;;;;;;-0.05;77.44;94754.19;4798422;29;20142;-42
2021/01/03 05:24:07;;;;;;;56.40;21.15;;;;;;;0.07;77.16;94760.91;4770128;29;20063;-40
2021/01/03 05:26:37;;;;;;;55.38;21.83;;;;;;;-0.11;78.06;94773.97;4769046;29;20536;-40
2021/01/03 05:29:07;;;;;;;56.22;20.92;;;;;;;-0.07;77.80;94774.16;4798053;29;20105;-43
2021/01/03 05:31:33;;;;;;;57.63;20.90;;;;;;;0.00;77.75;94769.28;4798470;29;20056;-42
2021/01/03 05:34:09;;;;;;;55.70;20.50;;;;;;;0.08;77.67;94773.91;4769569;29;20437;-42
2021/01/03 05:36:42;;;;;;;54.92;22.05;;;;;;;0.03;77.08;94767.88;4769849;29;20052;-40
2021/01/03 05:39:11;;;;;;;;;;;;;;;0.36;76.73;94779.25;4769450;29;20762;-43
2021/01/03 05:41:43;;;;;;;49.05;18.90;;;;;;;0.25;77.04;94785.84;4769609;29;20069;-42
2021/01/03 05:44:29;;;;;;;50.35;19.73;;;;;;;0.16;76.78;94785.72;4770463;29;20242;-45
2021/01/03 05:47:17;;;;;;;56.28;21.58;;;;;;;0.17;76.69;94779.34;4769578;29;20104;-44
2021/01/03 05:49:45;;;;;;;56.35;21.80;;;;;;;0.10;77.10;94789.56;4769532;29;20091;-44
2021/01/03 05:52:28;;;;;;;54.92;22.75;;;;;;;0.20;77.30;94786.72;4769121;29;20451;-42
2021/01/03 05:55:01;;;;;;;52.83;21.15;;;;;;;0.22;76.90;94782.66;4769376;29;20520;-43
2021/01/03 05:57:30;;;;;;;61.22;23.60;;;;;;;0.06;77.86;94784.03;4768821;29;20059;-42
2021/01/03 05:59:57;;;;;;;57.17;23.20;;;;;;;0.13;77.88;94791.63;4769303;29;20516;-43
2021/01/03 06:02:27;;;;;;;58.92;21.63;;;;;;;0.04;77.51;94796.84;4769243;29;20063;-44
2021/01/03 06:05:07;;;;;;;62.33;23.20;;;;;;;0.17;77.79;94793.41;4797791;29;20059;-42
2021/01/03 06:07:35;;;;;;;50.83;20.05;;;;;;;0.08;77.65;94797.84;4768505;29;20059;-42
2021/01/03 06:10:30;;;;;;;56.95;21.95;;;;;;;0.28;76.81;94803.88;4797681;29;20063;-44
2021/01/03 06:12:58;;;;;;;55.03;22.88;;;;;;;0.17;77.57;94798.75;4769176;29;20143;-42
2021/01/03 06:15:34;;;;;;;56.15;21.73;;;;;;;0.29;76.58;94792.13;4769073;29;20134;-44
2021/01/03 06:18:01;;;;;;;57.22;23.05;;;;;;;0.27;76.56;94791.66;4754530;29;20126;-41
2021/01/03 06:20:31;;;;;;;59.30;22.05;;;;;;;0.21;77.42;94790.97;4751282;30;20423;-40
2021/01/03 06:23:11;;;;;;;57.65;21.45;;;;;;;0.20;77.88;94800.81;4752408;30;20239;-41
2021/01/03 06:25:42;;;;;;;53.95;21.10;;;;;;;0.29;77.11;94794.78;4751262;30;20060;-43
2021/01/03 06:28:17;;;;;;;61.70;24.13;;;;;;;0.23;77.07;94794.91;4750530;30;20060;-43
2021/01/03 06:30:53;;;;;;;59.22;21.67;;;;;;;0.08;77.03;94797.06;4751512;30;20147;-40
2021/01/03 06:33:28;;;;;;;56.95;23.40;;;;;;;-0.06;77.81;94799.69;4751039;30;20091;-42
2021/01/03 06:36:06;;;;;;;57.88;21.88;;;;;;;-0.02;77.66;94808.66;4751361;30;20064;-39
2021/01/03 06:38:38;;;;;;;54.83;20.88;;;;;;;0.14;76.85;94802.00;4750433;30;20076;-39
2021/01/03 06:41:14;;;;;;;52.88;22.05;;;;;;;0.03;77.42;94800.56;4762455;30;20074;-39
2021/01/03 06:43:44;;;;;;;57.05;22.20;;;;;;;-0.01;77.37;94803.03;4768564;30;20062;-39
2021/01/03 06:46:48;;;;;;;48.85;21.80;;;;;;;-0.03;77.65;94791.13;4767665;30;20052;-39
2021/01/03 06:49:25;;;;;;;;;;;;;;;0.19;76.89;94807.19;4767539;30;20125;-43
2021/01/03 06:52:17;;;;;;;58.70;21.23;;;;;;;0.22;76.40;94808.50;4768888;29;19926;-44
2021/01/03 06:54:49;;;;;;;49.33;20.80;;;;;;;0.23;76.23;94808.22;4768524;29;20079;-41
2021/01/03 06:57:46;;;;;;;55.83;22.48;;;;;;;0.30;76.06;94817.69;4768464;29;20088;-43
2021/01/03 07:00:20;;;;;;;51.33;21.52;;;;;;;0.34;76.24;94826.66;4768482;30;20459;-41
2021/01/03 07:02:52;;;;;;;57.25;22.73;;;;;;;0.51;75.54;94831.38;4767970;30;20051;-43
2021/01/03 07:05:19;;;;;;;53.30;21.77;;;;;;;0.60;75.05;94824.28;4772231;30;20083;-41
2021/01/03 07:08:00;;;;;;;52.42;21.60;;;;;;;0.60;75.15;94825.06;4771378;30;20498;-44
2021/01/03 07:10:40;;;;;;;55.38;22.20;;;;;;;0.53;74.79;94827.34;4786849;29;20506;-44
2021/01/03 07:13:25;;;;;;;51.95;21.67;;;;;;;0.42;75.73;94823.28;4770518;30;20059;-44
2021/01/03 07:15:53;;;;;;;47.55;21.05;;;;;;;0.38;75.45;94819.66;4770442;30;20406;-46
2021/01/03 07:18:26;;;;;;;53.33;22.48;;;;;;;0.45;75.46;94817.38;4771074;29;20125;-46
2021/01/03 07:21:03;;;;;;;46.05;19.50;;;;;;;0.46;74.80;94833.06;4771685;29;20085;-44
2021/01/03 07:23:35;;;;;;;50.67;21.15;;;;;;;0.46;75.57;94824.28;4771615;29;20063;-44
2021/01/03 07:26:31;;;;;;;50.88;21.30;;;;;;;0.33;75.75;94827.75;4771638;29;20064;-45
2021/01/03 07:28:59;;;;;;;50.42;21.58;;;;;;;0.35;75.14;94834.31;4769655;30;20533;-46
2021/01/03 07:31:55;;;;;;;43.08;18.67;;;;;;;0.49;74.85;94834.34;4771710;29;20107;-44
2021/01/03 07:34:33;;;;;;;51.03;21.75;;;;;;;0.49;74.37;94841.53;4771150;30;20056;-45
2021/01/03 07:37:11;;;;;;;47.83;20.42;;;;;;;0.60;74.23;94841.03;4771371;29;20067;-42
2021/01/03 07:39:55;;;;;;;53.50;22.67;;;;;;;0.59;74.33;94844.81;4770316;30;20108;-41
2021/01/03 07:42:25;;;;;;;42.08;19.88;;;;;;;0.38;74.86;94847.03;4771992;30;20511;-43
2021/01/03 07:44:53;;;;;;;47.25;21.60;;;;;;;0.52;73.97;94835.63;4770696;29;20151;-41
2021/01/03 07:47:41;;;;;;;46.63;20.38;;;;;;;0.65;73.07;94842.81;4770722;29;20067;-44
2021/01/03 07:50:17;;;;;;;47.17;19.98;;;;;;;0.67;73.44;94848.63;4771745;29;20117;-41
2021/01/03 07:53:13;;;;;;;46.38;20.00;;;;;;;0.61;73.77;94852.47;4771483;30;20067;-42
2021/01/03 07:55:39;;;;;;;47.92;22.00;;;;;;;0.49;73.76;94850.31;4770862;29;20068;-40
2021/01/03 07:58:16;;;;;;;45.55;19.77;;;;;;;0.70;73.01;94848.06;4770416;29;20063;-42
2021/01/03 08:00:44;;;;;;;48.63;19.88;;;;;;;0.38;73.93;94848.91;4771146;29;20138;-40
2021/01/03 08:03:15;;;;;;;42.22;18.92;;;;;;;0.52;73.59;94851.59;4770789;29;20479;-40
2021/01/03 08:05:43;;;;;;;45.72;19.90;;;;;;;0.55;73.35;94835.81;4771113;29;20059;-40
2021/01/03 08:08:21;;;;;;;44.25;20.13;;;;;;;0.54;73.33;94852.88;4754449;30;20083;-41
2021/01/03 08:10:51;;;;;;;36.30;18.55;;;;;;;0.66;73.30;94853.19;4771236;29;20138;-48
2021/01/03 08:13:24;;;;;;;39.45;18.42;;;;;;;0.85;72.40;94857.63;4770949;29;20063;-49
2021/01/03 08:15:56;;;;;;;40.72;18.17;;;;;;;0.69;72.52;94855.25;4770702;29;20066;-44
2021/01/03 08:18:24;;;;;;;43.08;19.40;;;;;;;0.73;72.59;94858.09;4770198;29;20109;-44
2021/01/03 08:21:01;;;;;;;37.47;18.70;;;;;;;0.78;72.44;94863.34;4770710;29;20532;-41
2021/01/03 08:23:32;;;;;;;38.97;18.65;;;;;;;0.88;72.14;94865.81;4771193;29;20059;-41
2021/01/03 08:26:22;;;;;;;41.40;18.58;;;;;;;1.10;71.73;94862.41;4769914;29;20059;-42
2021/01/03 08:29:04;;;;;;;42.97;19.52;;;;;;;1.12;71.41;94865.56;4770312;29;20147;-41
2021/01/03 08:31:32;;;;;;;40.87;19.87;;;;;;;1.10;71.79;94859.75;4770761;29;20080;-41
2021/01/03 08:34:00;;;;;;;48.85;21.42;;;;;;;1.00;71.67;94859.97;4770448;29;20654;-40
2021/01/03 08:36:35;;;;;;;41.67;17.92;;;;;;;0.94;72.36;94871.81;4770675;29;20063;-40
2021/01/03 08:39:09;;;;;;;40.50;17.80;;;;;;;0.92;71.80;94880.09;4770291;29;20086;-40
2021/01/03 08:41:44;;;;;;;40.97;17.75;;;;;;;0.91;71.29;94883.03;4770633;29;20091;-43
2021/01/03 08:44:11;;;;;;;40.55;18.70;;;;;;;1.00;71.50;94891.91;4770250;29;20064;-39
2021/01/03 08:46:37;;;;;;;40.08;18.30;;;;;;;0.87;72.02;94898.03;4770663;29;20067;-44
2021/01/03 08:49:08;;;;;;;38.13;18.10;;;;;;;0.96;71.86;94893.59;4762930;30;20585;-40
2021/01/03 08:51:36;;;;;;;42.55;19.17;;;;;;;1.01;71.62;94895.38;4752665;30;20079;-40
2021/01/03 08:54:08;;;;;;;38.42;17.33;;;;;;;1.30;70.93;94895.06;4752545;30;20091;-46
2021/01/03 08:56:47;;;;;;;38.78;18.42;;;;;;;1.31;70.76;94897.44;4753366;30;20135;-45
2021/01/03 08:59:15;;;;;;;39.42;18.45;;;;;;;1.25;70.17;94903.94;4751931;30;20056;-39
2021/01/03 09:01:41;;;;;;;37.47;19.05;;;;;;;1.22;70.50;94903.75;4752680;30;20060;-40
2021/01/03 09:04:12;;;;;;;36.35;17.77;;;;;;;1.37;69.91;94900.78;4752344;30;20063;-39
2021/01/03 09:06:39;;;;;;;40.95;18.27;;;;;;;1.31;69.67;94907.31;4752771;30;20060;-39
2021/01/03 09:09:15;;;;;;;36.30;17.50;;;;;;;1.37;69.58;94904.25;4751215;30;20143;-42
2021/01/03 09:11:59;;;;;;;35.65;17.65;;;;;;;1.26;69.73;94918.06;4752919;30;20066;-43
2021/01/03 09:14:29;;;;;;;36.80;16.42;;;;;;;1.21;70.24;94920.84;4752791;30;20207;-43
2021/01/03 09:17:03;;;;;;;38.60;17.63;;;;;;;1.38;69.41;94924.47;4768042;29;20531;-42
2021/01/03 09:19:53;;;;;;;36.13;18.70;;;;;;;1.00;70.24;94923.88;4769233;30;20081;-40
2021/01/03 09:22:26;;;;;;;40.53;17.67;;;;;;;1.05;70.27;94929.13;4770052;30;20418;-39
2021/01/03 09:25:25;;;;;;;40.80;17.77;;;;;;;1.03;70.91;94933.94;4769845;29;20579;-41
2021/01/03 09:27:55;;;;;;;39.63;17.73;;;;;;;0.94;70.99;94946.38;4766353;30;20155;-40
2021/01/03 09:30:37;;;;;;;35.83;16.63;;;;;;;0.91;70.96;94941.63;4770053;29;20138;-41
2021/01/03 09:33:12;;;;;;;40.70;18.15;;;;;;;0.95;71.38;94939.97;4770066;30;20055;-42
2021/01/03 09:35:41;;;;;;;42.08;18.75;;;;;;;1.23;70.34;94947.97;4769907;30;20056;-41
2021/01/03 09:38:20;;;;;;;33.88;17.08;;;;;;;1.27;70.13;94946.28;4768756;29;20083;-43
2021/01/03 09:41:02;;;;;;;37.13;16.40;;;;;;;1.09;70.81;94943.44;4769805;30;20051;-40
2021/01/03 09:43:47;;;;;;;37.10;16.77;;;;;;;1.13;70.93;94951.63;4770252;29;20055;-41
2021/01/03 09:46:34;;;;;;;37.28;17.70;;;;;;;1.04;70.89;94938.22;4770102;30;20316;-41
2021/01/03 09:49:24;;;;;;;52.97;24.02;;;;;;;1.35;70.17;94950.91;4769229;29;20141;-40
2021/01/03 09:52:13;;;;;;;39.67;18.48;;;;;;;1.33;69.51;94955.75;4770169;29;20059;-41
2021/01/03 09:55:03;;;;;;;39.28;16.90;;;;;;;1.44;69.41;94959.81;4767551;30;20063;-43
2021/01/03 09:57:42;;;;;;;32.65;15.90;;;;;;;1.45;69.01;94961.38;4750940;29;20127;-46
2021/01/03 10:00:12;;;;;;;39.85;17.83;;;;;;;1.44;69.28;94953.69;4751546;29;20052;-46
2021/01/03 10:02:39;;;;;;;35.95;17.17;;;;;;;1.44;69.38;94959.03;4751558;29;20060;-48
2021/01/03 10:05:28;;;;;;;38.35;17.33;;;;;;;1.24;69.53;94949.56;4752272;29;20071;-45
2021/01/03 10:08:04;;;;;;;36.22;17.08;;;;;;;1.21;70.18;94955.47;4751075;29;20519;-42
2021/01/03 10:10:45;;;;;;;34.97;17.05;;;;;;;1.33;69.73;94955.75;4751476;29;20067;-44
2021/01/03 10:13:12;;;;;;;37.30;16.48;;;;;;;1.25;70.12;94953.78;4751427;29;20576;-42
2021/01/03 10:15:40;;;;;;;39.60;17.75;;;;;;;1.34;69.65;94949.34;4751464;29;20565;-45
2021/01/03 10:18:10;;;;;;;39.90;17.40;;;;;;;1.04;70.65;94948.06;4749288;30;20148;-43
2021/01/03 10:20:47;;;;;;;37.22;16.83;;;;;;;1.28;70.46;94948.66;4750977;29;20576;-43
2021/01/03 10:23:31;;;;;;;34.75;16.33;;;;;;;1.31;69.40;94948.06;4751460;29;20102;-39
2021/01/03 10:25:57;;;;;;;32.33;15.07;;;;;;;0.99;70.06;94948.16;4751032;29;20120;-44
2021/01/03 10:28:23;;;;;;;36.92;17.50;;;;;;;0.83;71.15;94951.09;4750748;30;20064;-43
2021/01/03 10:30:50;;;;;;;37.25;16.98;;;;;;;0.79;70.65;94941.34;4753471;29;20110;-45
2021/01/03 10:33:16;;;;;;;35.75;17.27;;;;;;;0.99;70.50;94937.50;4768220;30;20085;-44
2021/01/03 10:35:43;;;;;;;36.47;16.65;;;;;;;1.08;69.77;94944.53;4768932;30;20059;-41
2021/01/03 10:38:10;;;;;;;32.58;16.15;;;;;;;1.10;69.70;94939.66;4768155;30;20117;-43
2021/01/03 10:40:36;;;;;;;32.33;16.05;;;;;;;1.12;69.51;94944.72;4767636;29;20059;-46
2021/01/03 10:43:04;;;;;;;35.97;16.65;;;;;;;1.00;69.96;94945.19;4768826;29;20067;-43
2021/01/03 10:45:31;;;;;;;35.35;16.08;;;;;;;0.99;70.39;94940.19;4768863;30;20110;-42
2021/01/03 10:47:57;;;;;;;36.28;16.42;;;;;;;0.92;70.36;94932.56;4767869;29;20124;-43
2021/01/03 10:50:24;;;;;;;32.53;15.05;;;;;;;1.21;69.74;94934.16;4783794;29;20142;-42
2021/01/03 10:52:51;;;;;;;32.78;16.88;;;;;;;1.38;68.35;94943.13;4786169;29;20066;-41
2021/01/03 10:55:21;;;;;;;34.67;16.58;;;;;;;1.54;68.49;94934.81;4786372;29;20055;-41
2021/01/03 10:57:48;;;;;;;35.45;16.23;;;;;;;1.44;68.33;94925.16;4785625;29;20112;-44
2021/01/03 11:00:15;;;;;;;35.13;16.92;;;;;;;1.42;68.98;94931.88;4786044;29;20116;-44
2021/01/03 11:02:43;;;;;;;34.40;15.57;;;;;;;1.50;68.45;94931.19;4785985;29;20510;-44
2021/01/03 11:05:10;;;;;;;37.85;17.45;;;;;;;1.30;69.17;94930.50;4786334;29;20070;-46
2021/01/03 11:07:37;;;;;;;34.95;16.38;;;;;;;1.46;68.13;94933.63;4785454;29;20078;-40
2021/01/03 11:10:06;;;;;;;35.10;17.00;;;;;;;1.61;68.34;94933.31;4786590;29;20473;-45
2021/01/03 11:12:32;;;;;;;39.22;17.73;;;;;;;1.60;68.55;94930.94;4786250;29;20139;-44
2021/01/03 11:14:59;;;;;;;34.08;17.23;;;;;;;1.51;68.57;94922.06;4785061;29;20510;-43
2021/01/03 11:17:27;;;;;;;38.60;17.45;;;;;;;1.28;69.56;94927.34;4785585;29;20087;-44
2021/01/03 11:19:54;;;;;;;34.65;16.95;;;;;;;1.28;69.24;94934.56;4781114;29;20660;-46
2021/01/03 11:22:20;;;;;;;41.17;19.15;;;;;;;1.32;69.40;94925.66;4769061;29;20056;-42
2021/01/03 11:24:47;;;;;;;35.50;16.13;;;;;;;1.07;69.63;94916.31;4768367;30;20423;-41
2021/01/03 11:27:17;;;;;;;31.65;15.43;;;;;;;1.25;69.96;94932.47;4750585;30;20570;-49
2021/01/03 11:29:51;;;;;;;35.03;16.85;;;;;;;1.23;69.59;94929.31;4750021;30;20079;-44
2021/01/03 11:32:23;;;;;;;35.22;16.02;;;;;;;1.36;69.05;94921.28;4750494;30;20052;-40
2021/01/03 11:34:51;;;;;;;35.95;17.10;;;;;;;1.42;69.01;94919.31;4750466;30;20543;-44
2021/01/03 11:37:21;;;;;;;34.80;17.17;;;;;;;1.39;69.08;94919.91;4750544;30;20138;-40
2021/01/03 11:39:48;;;;;;;35.15;16.70;;;;;;;1.52;68.82;94921.78;4751254;30;20060;-42
2021/01/03 11:42:23;;;;;;;34.80;17.13;;;;;;;1.72;68.09;94911.75;4750700;30;20084;-44
2021/01/03 11:44:50;;;;;;;32.40;15.82;;;;;;;1.72;68.29;94922.41;4762519;30;20143;-45